sensor_id;sensor_type;location;lat;lon;timestamp;P1;durP1;ratioP1;P2;durP2;ratioP2
12224;SDS011;6175;50.956;11.064;2024-03-02T00:01:37;21.95;;;15.70;;
12224;SDS011;6175;50.956;11.064;2024-03-02T00:04:08;23.75;;;15.82;;
12224;SDS011;6175;50.956;11.064;2024-03-02T00:06:36;25.75;;;16.05;;
12224;SDS011;6175;50.956;11.064;2024-03-02T00:09:03;23.33;;;16.20;;
12224;SDS011;6175;50.956;11.064;2024-03-02T00:11:33;22.15;;;14.55;;
12224;SDS011;6175;50.956;11.064;2024-03-02T00:14:01;20.67;;;14.07;;
12224;SDS011;6175;50.956;11.064;2024-03-02T00:16:29;23.17;;;16.05;;
12224;SDS011;6175;50.956;11.064;2024-03-02T00:19:00;22.73;;;15.10;;
12224;SDS011;6175;50.956;11.064;2024-03-02T00:21:29;21.20;;;14.43;;
12224;SDS011;6175;50.956;11.064;2024-03-02T00:23:57;20.90;;;15.20;;
12224;SDS011;6175;50.956;11.064;2024-03-02T00:26:24;20.70;;;14.38;;
12224;SDS011;6175;50.956;11.064;2024-03-02T00:28:51;19.48;;;13.07;;
12224;SDS011;6175;50.956;11.064;2024-03-02T00:31:22;17.83;;;11.98;;
12224;SDS011;6175;50.956;11.064;2024-03-02T00:33:50;19.25;;;13.13;;
12224;SDS011;6175;50.956;11.064;2024-03-02T00:36:22;19.95;;;14.00;;
12224;SDS011;6175;50.956;11.064;2024-03-02T00:38:53;19.02;;;13.60;;
12224;SDS011;6175;50.956;11.064;2024-03-02T00:41:22;22.15;;;15.13;;
12224;SDS011;6175;50.956;11.064;2024-03-02T00:43:53;22.60;;;15.05;;
12224;SDS011;6175;50.956;11.064;2024-03-02T00:46:22;17.70;;;13.57;;
12224;SDS011;6175;50.956;11.064;2024-03-02T00:48:53;21.63;;;15.05;;
12224;SDS011;6175;50.956;11.064;2024-03-02T00:51:20;19.48;;;14.30;;
12224;SDS011;6175;50.956;11.064;2024-03-02T00:53:48;18.83;;;13.90;;
12224;SDS011;6175;50.956;11.064;2024-03-02T00:56:17;21.35;;;14.48;;
12224;SDS011;6175;50.956;11.064;2024-03-02T00:58:44;21.10;;;14.25;;
12224;SDS011;6175;50.956;11.064;2024-03-02T01:01:11;19.27;;;13.25;;
12224;SDS011;6175;50.956;11.064;2024-03-02T01:03:38;18.05;;;12.68;;
12224;SDS011;6175;50.956;11.064;2024-03-02T01:06:06;17.60;;;12.80;;
12224;SDS011;6175;50.956;11.064;2024-03-02T01:08:34;17.98;;;13.07;;
12224;SDS011;6175;50.956;11.064;2024-03-02T01:11:01;18.10;;;12.77;;
12224;SDS011;6175;50.956;11.064;2024-03-02T01:13:29;20.42;;;13.77;;
12224;SDS011;6175;50.956;11.064;2024-03-02T01:15:56;17.52;;;12.48;;
12224;SDS011;6175;50.956;11.064;2024-03-02T01:18:24;14.27;;;11.35;;
12224;SDS011;6175;50.956;11.064;2024-03-02T01:20:51;14.95;;;11.30;;
12224;SDS011;6175;50.956;11.064;2024-03-02T01:23:21;14.82;;;10.85;;
12224;SDS011;6175;50.956;11.064;2024-03-02T01:25:48;18.83;;;12.60;;
12224;SDS011;6175;50.956;11.064;2024-03-02T01:28:15;19.38;;;12.43;;
12224;SDS011;6175;50.956;11.064;2024-03-02T01:30:44;18.38;;;12.50;;
12224;SDS011;6175;50.956;11.064;2024-03-02T01:33:11;15.90;;;10.70;;
12224;SDS011;6175;50.956;11.064;2024-03-02T01:35:38;13.18;;;10.15;;
12224;SDS011;6175;50.956;11.064;2024-03-02T01:38:05;14.65;;;10.60;;
12224;SDS011;6175;50.956;11.064;2024-03-02T01:40:32;14.98;;;11.85;;
12224;SDS011;6175;50.956;11.064;2024-03-02T01:42:59;17.77;;;12.85;;
12224;SDS011;6175;50.956;11.064;2024-03-02T01:45:27;17.83;;;12.55;;
12224;SDS011;6175;50.956;11.064;2024-03-02T01:47:56;20.60;;;14.55;;
12224;SDS011;6175;50.956;11.064;2024-03-02T01:50:26;16.38;;;12.90;;
12224;SDS011;6175;50.956;11.064;2024-03-02T01:52:53;16.10;;;11.85;;
12224;SDS011;6175;50.956;11.064;2024-03-02T01:55:20;17.65;;;12.80;;
12224;SDS011;6175;50.956;11.064;2024-03-02T01:57:47;17.88;;;12.10;;
12224;SDS011;6175;50.956;11.064;2024-03-02T02:00:14;18.38;;;12.70;;
12224;SDS011;6175;50.956;11.064;2024-03-02T02:02:41;18.23;;;12.38;;
12224;SDS011;6175;50.956;11.064;2024-03-02T02:05:10;18.38;;;12.98;;
12224;SDS011;6175;50.956;11.064;2024-03-02T02:07:37;16.33;;;12.85;;
12224;SDS011;6175;50.956;11.064;2024-03-02T02:10:04;19.50;;;13.38;;
12224;SDS011;6175;50.956;11.064;2024-03-02T02:12:32;20.35;;;13.85;;
12224;SDS011;6175;50.956;11.064;2024-03-02T02:14:59;18.13;;;12.88;;
12224;SDS011;6175;50.956;11.064;2024-03-02T02:17:26;19.60;;;14.02;;
12224;SDS011;6175;50.956;11.064;2024-03-02T02:19:53;19.63;;;13.45;;
12224;SDS011;6175;50.956;11.064;2024-03-02T02:22:22;18.90;;;14.32;;
12224;SDS011;6175;50.956;11.064;2024-03-02T02:24:49;18.50;;;13.63;;
12224;SDS011;6175;50.956;11.064;2024-03-02T02:27:16;18.35;;;12.95;;
12224;SDS011;6175;50.956;11.064;2024-03-02T02:29:43;17.92;;;12.32;;
12224;SDS011;6175;50.956;11.064;2024-03-02T02:32:10;17.17;;;13.07;;
12224;SDS011;6175;50.956;11.064;2024-03-02T02:34:37;21.27;;;13.50;;
12224;SDS011;6175;50.956;11.064;2024-03-02T02:37:04;19.60;;;13.10;;
12224;SDS011;6175;50.956;11.064;2024-03-02T02:39:32;17.13;;;13.15;;
12224;SDS011;6175;50.956;11.064;2024-03-02T02:41:59;18.42;;;13.43;;
12224;SDS011;6175;50.956;11.064;2024-03-02T02:44:27;17.70;;;13.13;;
12224;SDS011;6175;50.956;11.064;2024-03-02T02:46:54;17.52;;;12.18;;
12224;SDS011;6175;50.956;11.064;2024-03-02T02:49:22;18.10;;;13.20;;
12224;SDS011;6175;50.956;11.064;2024-03-02T02:51:49;17.80;;;13.32;;
12224;SDS011;6175;50.956;11.064;2024-03-02T02:54:16;20.25;;;13.85;;
12224;SDS011;6175;50.956;11.064;2024-03-02T02:56:44;20.05;;;14.45;;
12224;SDS011;6175;50.956;11.064;2024-03-02T02:59:11;19.75;;;13.82;;
12224;SDS011;6175;50.956;11.064;2024-03-02T03:01:38;16.67;;;12.48;;
12224;SDS011;6175;50.956;11.064;2024-03-02T03:04:06;17.95;;;12.23;;
12224;SDS011;6175;50.956;11.064;2024-03-02T03:06:33;20.10;;;14.15;;
12224;SDS011;6175;50.956;11.064;2024-03-02T03:09:00;18.40;;;14.48;;
12224;SDS011;6175;50.956;11.064;2024-03-02T03:11:27;17.85;;;13.68;;
12224;SDS011;6175;50.956;11.064;2024-03-02T03:13:55;20.58;;;14.85;;
12224;SDS011;6175;50.956;11.064;2024-03-02T03:16:22;23.23;;;14.65;;
12224;SDS011;6175;50.956;11.064;2024-03-02T03:18:50;19.20;;;14.38;;
12224;SDS011;6175;50.956;11.064;2024-03-02T03:21:18;21.95;;;15.73;;
12224;SDS011;6175;50.956;11.064;2024-03-02T03:23:46;18.20;;;13.57;;
12224;SDS011;6175;50.956;11.064;2024-03-02T03:26:13;19.90;;;13.93;;
12224;SDS011;6175;50.956;11.064;2024-03-02T03:28:40;18.98;;;15.07;;
12224;SDS011;6175;50.956;11.064;2024-03-02T03:31:08;18.05;;;12.73;;
12224;SDS011;6175;50.956;11.064;2024-03-02T03:33:35;18.98;;;13.68;;
12224;SDS011;6175;50.956;11.064;2024-03-02T03:36:03;15.88;;;11.43;;
12224;SDS011;6175;50.956;11.064;2024-03-02T03:38:30;14.52;;;11.18;;
12224;SDS011;6175;50.956;11.064;2024-03-02T03:40:57;16.05;;;12.60;;
12224;SDS011;6175;50.956;11.064;2024-03-02T03:43:24;14.43;;;11.85;;
12224;SDS011;6175;50.956;11.064;2024-03-02T03:45:51;19.77;;;13.38;;
12224;SDS011;6175;50.956;11.064;2024-03-02T03:48:20;17.33;;;12.50;;
12224;SDS011;6175;50.956;11.064;2024-03-02T03:50:46;18.67;;;14.57;;
12224;SDS011;6175;50.956;11.064;2024-03-02T03:53:13;24.40;;;15.73;;
12224;SDS011;6175;50.956;11.064;2024-03-02T03:55:40;21.30;;;15.27;;
12224;SDS011;6175;50.956;11.064;2024-03-02T03:58:08;18.38;;;13.57;;
12224;SDS011;6175;50.956;11.064;2024-03-02T04:00:35;19.48;;;14.25;;
12224;SDS011;6175;50.956;11.064;2024-03-02T04:03:01;18.52;;;14.05;;
12224;SDS011;6175;50.956;11.064;2024-03-02T04:05:29;21.80;;;15.15;;
12224;SDS011;6175;50.956;11.064;2024-03-02T04:07:56;22.65;;;15.25;;
12224;SDS011;6175;50.956;11.064;2024-03-02T04:10:23;19.88;;;13.52;;
12224;SDS011;6175;50.956;11.064;2024-03-02T04:12:50;19.63;;;14.23;;
12224;SDS011;6175;50.956;11.064;2024-03-02T04:15:17;23.33;;;15.63;;
12224;SDS011;6175;50.956;11.064;2024-03-02T04:17:44;22.85;;;15.43;;
12224;SDS011;6175;50.956;11.064;2024-03-02T04:20:11;25.88;;;17.58;;
12224;SDS011;6175;50.956;11.064;2024-03-02T04:22:40;23.10;;;15.90;;
12224;SDS011;6175;50.956;11.064;2024-03-02T04:25:07;26.05;;;17.25;;
12224;SDS011;6175;50.956;11.064;2024-03-02T04:27:35;32.20;;;20.67;;
12224;SDS011;6175;50.956;11.064;2024-03-02T04:30:03;29.98;;;19.58;;
12224;SDS011;6175;50.956;11.064;2024-03-02T04:32:31;28.42;;;19.08;;
12224;SDS011;6175;50.956;11.064;2024-03-02T04:34:58;31.08;;;20.77;;
12224;SDS011;6175;50.956;11.064;2024-03-02T04:37:25;35.08;;;22.70;;
12224;SDS011;6175;50.956;11.064;2024-03-02T04:39:57;32.35;;;21.38;;
12224;SDS011;6175;50.956;11.064;2024-03-02T04:42:24;37.65;;;24.65;;
12224;SDS011;6175;50.956;11.064;2024-03-02T04:44:51;33.65;;;22.17;;
12224;SDS011;6175;50.956;11.064;2024-03-02T04:47:18;38.90;;;24.25;;
12224;SDS011;6175;50.956;11.064;2024-03-02T04:49:45;31.98;;;21.77;;
12224;SDS011;6175;50.956;11.064;2024-03-02T04:52:12;31.73;;;20.95;;
12224;SDS011;6175;50.956;11.064;2024-03-02T04:54:39;30.08;;;20.30;;
12224;SDS011;6175;50.956;11.064;2024-03-02T04:57:22;28.42;;;19.20;;
12224;SDS011;6175;50.956;11.064;2024-03-02T04:59:49;27.67;;;18.90;;
12224;SDS011;6175;50.956;11.064;2024-03-02T05:02:16;28.75;;;19.25;;
12224;SDS011;6175;50.956;11.064;2024-03-02T05:04:43;26.00;;;18.30;;
12224;SDS011;6175;50.956;11.064;2024-03-02T05:07:10;23.20;;;15.88;;
12224;SDS011;6175;50.956;11.064;2024-03-02T05:09:37;23.88;;;17.35;;
12224;SDS011;6175;50.956;11.064;2024-03-02T05:12:04;26.98;;;18.52;;
12224;SDS011;6175;50.956;11.064;2024-03-02T05:14:55;25.88;;;17.60;;
12224;SDS011;6175;50.956;11.064;2024-03-02T05:17:22;23.75;;;16.45;;
12224;SDS011;6175;50.956;11.064;2024-03-02T05:19:50;22.52;;;15.90;;
12224;SDS011;6175;50.956;11.064;2024-03-02T05:22:17;26.25;;;18.50;;
12224;SDS011;6175;50.956;11.064;2024-03-02T05:24:44;31.50;;;20.60;;
12224;SDS011;6175;50.956;11.064;2024-03-02T05:27:11;30.05;;;20.23;;
12224;SDS011;6175;50.956;11.064;2024-03-02T05:29:38;29.92;;;19.00;;
12224;SDS011;6175;50.956;11.064;2024-03-02T05:32:07;27.83;;;18.20;;
12224;SDS011;6175;50.956;11.064;2024-03-02T05:34:34;25.60;;;17.33;;
12224;SDS011;6175;50.956;11.064;2024-03-02T05:37:01;27.85;;;18.48;;
12224;SDS011;6175;50.956;11.064;2024-03-02T05:39:28;23.23;;;16.88;;
12224;SDS011;6175;50.956;11.064;2024-03-02T05:41:55;23.50;;;15.80;;
12224;SDS011;6175;50.956;11.064;2024-03-02T05:44:22;21.33;;;14.07;;
12224;SDS011;6175;50.956;11.064;2024-03-02T05:46:49;20.75;;;14.18;;
12224;SDS011;6175;50.956;11.064;2024-03-02T05:49:18;19.33;;;13.10;;
12224;SDS011;6175;50.956;11.064;2024-03-02T05:51:45;19.10;;;13.38;;
12224;SDS011;6175;50.956;11.064;2024-03-02T05:54:12;17.98;;;13.32;;
12224;SDS011;6175;50.956;11.064;2024-03-02T05:56:39;18.75;;;12.90;;
12224;SDS011;6175;50.956;11.064;2024-03-02T05:59:06;19.58;;;12.82;;
12224;SDS011;6175;50.956;11.064;2024-03-02T06:01:37;19.85;;;12.40;;
12224;SDS011;6175;50.956;11.064;2024-03-02T06:04:04;19.80;;;13.50;;
12224;SDS011;6175;50.956;11.064;2024-03-02T06:06:33;19.13;;;13.05;;
12224;SDS011;6175;50.956;11.064;2024-03-02T06:09:00;17.98;;;12.27;;
12224;SDS011;6175;50.956;11.064;2024-03-02T06:11:30;16.02;;;11.02;;
12224;SDS011;6175;50.956;11.064;2024-03-02T06:13:57;16.25;;;11.38;;
12224;SDS011;6175;50.956;11.064;2024-03-02T06:16:24;16.98;;;11.35;;
12224;SDS011;6175;50.956;11.064;2024-03-02T06:18:51;15.65;;;11.55;;
12224;SDS011;6175;50.956;11.064;2024-03-02T06:21:19;16.50;;;11.50;;
12224;SDS011;6175;50.956;11.064;2024-03-02T06:23:47;15.70;;;11.15;;
12224;SDS011;6175;50.956;11.064;2024-03-02T06:26:14;16.27;;;10.65;;
12224;SDS011;6175;50.956;11.064;2024-03-02T06:28:41;15.48;;;11.23;;
12224;SDS011;6175;50.956;11.064;2024-03-02T06:31:09;17.27;;;12.10;;
12224;SDS011;6175;50.956;11.064;2024-03-02T06:33:36;17.42;;;11.85;;
12224;SDS011;6175;50.956;11.064;2024-03-02T06:36:03;15.00;;;10.55;;
12224;SDS011;6175;50.956;11.064;2024-03-02T06:38:33;16.15;;;11.25;;
12224;SDS011;6175;50.956;11.064;2024-03-02T06:41:02;16.45;;;11.23;;
12224;SDS011;6175;50.956;11.064;2024-03-02T06:43:29;15.85;;;11.18;;
12224;SDS011;6175;50.956;11.064;2024-03-02T06:45:55;15.45;;;10.77;;
12224;SDS011;6175;50.956;11.064;2024-03-02T06:48:22;14.32;;;9.70;;
12224;SDS011;6175;50.956;11.064;2024-03-02T06:50:49;15.43;;;10.60;;
12224;SDS011;6175;50.956;11.064;2024-03-02T06:53:17;15.90;;;10.80;;
12224;SDS011;6175;50.956;11.064;2024-03-02T06:55:45;15.90;;;11.20;;
12224;SDS011;6175;50.956;11.064;2024-03-02T06:58:13;16.60;;;11.13;;
12224;SDS011;6175;50.956;11.064;2024-03-02T07:00:41;12.95;;;10.10;;
12224;SDS011;6175;50.956;11.064;2024-03-02T07:03:09;14.57;;;11.63;;
12224;SDS011;6175;50.956;11.064;2024-03-02T07:05:36;15.80;;;11.27;;
12224;SDS011;6175;50.956;11.064;2024-03-02T07:08:03;14.60;;;11.35;;
12224;SDS011;6175;50.956;11.064;2024-03-02T07:10:31;16.33;;;12.43;;
12224;SDS011;6175;50.956;11.064;2024-03-02T07:12:58;15.18;;;11.32;;
12224;SDS011;6175;50.956;11.064;2024-03-02T07:15:26;15.52;;;11.05;;
12224;SDS011;6175;50.956;11.064;2024-03-02T07:18:19;13.07;;;10.07;;
12224;SDS011;6175;50.956;11.064;2024-03-02T07:20:46;14.13;;;10.68;;
12224;SDS011;6175;50.956;11.064;2024-03-02T07:23:14;13.07;;;10.63;;
12224;SDS011;6175;50.956;11.064;2024-03-02T07:25:41;13.93;;;11.18;;
12224;SDS011;6175;50.956;11.064;2024-03-02T07:28:08;14.07;;;10.30;;
12224;SDS011;6175;50.956;11.064;2024-03-02T07:30:37;16.30;;;11.43;;
12224;SDS011;6175;50.956;11.064;2024-03-02T07:33:05;13.93;;;10.60;;
12224;SDS011;6175;50.956;11.064;2024-03-02T07:35:32;14.73;;;11.48;;
12224;SDS011;6175;50.956;11.064;2024-03-02T07:37:59;15.00;;;11.07;;
12224;SDS011;6175;50.956;11.064;2024-03-02T07:40:26;14.50;;;11.18;;
12224;SDS011;6175;50.956;11.064;2024-03-02T07:42:53;14.90;;;10.52;;
12224;SDS011;6175;50.956;11.064;2024-03-02T07:45:21;13.75;;;10.27;;
12224;SDS011;6175;50.956;11.064;2024-03-02T07:47:50;16.23;;;11.27;;
12224;SDS011;6175;50.956;11.064;2024-03-02T07:50:17;13.50;;;10.48;;
12224;SDS011;6175;50.956;11.064;2024-03-02T07:52:44;14.60;;;11.20;;
12224;SDS011;6175;50.956;11.064;2024-03-02T07:55:11;14.18;;;11.38;;
12224;SDS011;6175;50.956;11.064;2024-03-02T07:57:39;15.43;;;11.55;;
12224;SDS011;6175;50.956;11.064;2024-03-02T08:00:07;14.00;;;10.95;;
12224;SDS011;6175;50.956;11.064;2024-03-02T08:02:34;14.60;;;10.35;;
12224;SDS011;6175;50.956;11.064;2024-03-02T08:05:03;15.65;;;11.73;;
12224;SDS011;6175;50.956;11.064;2024-03-02T08:07:30;15.18;;;12.27;;
12224;SDS011;6175;50.956;11.064;2024-03-02T08:09:57;14.48;;;11.30;;
12224;SDS011;6175;50.956;11.064;2024-03-02T08:12:24;13.73;;;11.18;;
12224;SDS011;6175;50.956;11.064;2024-03-02T08:14:51;14.00;;;11.40;;
12224;SDS011;6175;50.956;11.064;2024-03-02T08:17:18;14.07;;;11.13;;
12224;SDS011;6175;50.956;11.064;2024-03-02T08:19:45;15.27;;;11.55;;
12224;SDS011;6175;50.956;11.064;2024-03-02T08:22:14;14.65;;;11.70;;
12224;SDS011;6175;50.956;11.064;2024-03-02T08:24:41;14.50;;;11.32;;
12224;SDS011;6175;50.956;11.064;2024-03-02T08:27:09;16.05;;;12.02;;
12224;SDS011;6175;50.956;11.064;2024-03-02T08:29:36;13.10;;;10.30;;
12224;SDS011;6175;50.956;11.064;2024-03-02T08:32:03;15.55;;;12.43;;
12224;SDS011;6175;50.956;11.064;2024-03-02T08:34:30;14.45;;;11.30;;
12224;SDS011;6175;50.956;11.064;2024-03-02T08:36:58;13.00;;;10.07;;
12224;SDS011;6175;50.956;11.064;2024-03-02T08:39:27;12.18;;;10.10;;
12224;SDS011;6175;50.956;11.064;2024-03-02T08:41:54;12.52;;;10.00;;
12224;SDS011;6175;50.956;11.064;2024-03-02T08:44:21;14.05;;;11.40;;
12224;SDS011;6175;50.956;11.064;2024-03-02T08:46:49;12.95;;;10.60;;
12224;SDS011;6175;50.956;11.064;2024-03-02T08:49:16;12.82;;;9.98;;
12224;SDS011;6175;50.956;11.064;2024-03-02T08:51:43;13.00;;;10.00;;
12224;SDS011;6175;50.956;11.064;2024-03-02T08:54:19;12.45;;;9.70;;
12224;SDS011;6175;50.956;11.064;2024-03-02T08:56:47;16.60;;;10.50;;
12224;SDS011;6175;50.956;11.064;2024-03-02T08:59:14;10.55;;;8.80;;
12224;SDS011;6175;50.956;11.064;2024-03-02T09:01:42;12.43;;;9.25;;
12224;SDS011;6175;50.956;11.064;2024-03-02T09:04:10;11.15;;;8.80;;
12224;SDS011;6175;50.956;11.064;2024-03-02T09:06:37;12.35;;;9.40;;
12224;SDS011;6175;50.956;11.064;2024-03-02T09:09:04;12.55;;;8.98;;
12224;SDS011;6175;50.956;11.064;2024-03-02T09:11:31;11.57;;;8.98;;
12224;SDS011;6175;50.956;11.064;2024-03-02T09:14:01;12.18;;;9.52;;
12224;SDS011;6175;50.956;11.064;2024-03-02T09:16:27;9.32;;;8.32;;
12224;SDS011;6175;50.956;11.064;2024-03-02T09:18:55;10.98;;;8.20;;
12224;SDS011;6175;50.956;11.064;2024-03-02T09:21:23;12.93;;;9.13;;
12224;SDS011;6175;50.956;11.064;2024-03-02T09:23:50;10.40;;;8.55;;
12224;SDS011;6175;50.956;11.064;2024-03-02T09:26:17;9.70;;;7.63;;
12224;SDS011;6175;50.956;11.064;2024-03-02T09:28:45;8.88;;;7.75;;
12224;SDS011;6175;50.956;11.064;2024-03-02T09:31:14;9.98;;;7.95;;
12224;SDS011;6175;50.956;11.064;2024-03-02T09:33:41;9.15;;;7.65;;
12224;SDS011;6175;50.956;11.064;2024-03-02T09:36:16;9.43;;;7.72;;
12224;SDS011;6175;50.956;11.064;2024-03-02T09:38:43;10.13;;;7.72;;
12224;SDS011;6175;50.956;11.064;2024-03-02T09:41:10;8.63;;;7.35;;
12224;SDS011;6175;50.956;11.064;2024-03-02T09:43:38;9.63;;;7.35;;
12224;SDS011;6175;50.956;11.064;2024-03-02T09:46:05;9.30;;;7.93;;
12224;SDS011;6175;50.956;11.064;2024-03-02T09:48:34;10.38;;;8.43;;
12224;SDS011;6175;50.956;11.064;2024-03-02T09:51:01;9.73;;;7.22;;
12224;SDS011;6175;50.956;11.064;2024-03-02T09:53:30;10.25;;;7.25;;
12224;SDS011;6175;50.956;11.064;2024-03-02T09:55:58;7.78;;;6.97;;
12224;SDS011;6175;50.956;11.064;2024-03-02T09:58:25;9.13;;;7.57;;
12224;SDS011;6175;50.956;11.064;2024-03-02T10:00:53;9.75;;;7.93;;
12224;SDS011;6175;50.956;11.064;2024-03-02T10:03:20;10.35;;;7.60;;
12224;SDS011;6175;50.956;11.064;2024-03-02T10:05:50;8.52;;;7.60;;
12224;SDS011;6175;50.956;11.064;2024-03-02T10:08:17;8.57;;;7.25;;
12224;SDS011;6175;50.956;11.064;2024-03-02T10:10:44;8.93;;;7.55;;
12224;SDS011;6175;50.956;11.064;2024-03-02T10:13:12;8.85;;;7.47;;
12224;SDS011;6175;50.956;11.064;2024-03-02T10:15:40;7.00;;;6.22;;
12224;SDS011;6175;50.956;11.064;2024-03-02T10:18:08;8.38;;;7.18;;
12224;SDS011;6175;50.956;11.064;2024-03-02T10:20:36;8.75;;;6.70;;
12224;SDS011;6175;50.956;11.064;2024-03-02T10:23:12;7.85;;;6.68;;
12224;SDS011;6175;50.956;11.064;2024-03-02T10:25:39;8.77;;;7.43;;
12224;SDS011;6175;50.956;11.064;2024-03-02T10:28:06;7.32;;;6.57;;
12224;SDS011;6175;50.956;11.064;2024-03-02T10:30:34;8.85;;;6.50;;
12224;SDS011;6175;50.956;11.064;2024-03-02T10:33:00;7.75;;;5.97;;
12224;SDS011;6175;50.956;11.064;2024-03-02T10:35:28;6.90;;;5.80;;
12224;SDS011;6175;50.956;11.064;2024-03-02T10:37:56;7.13;;;6.35;;
12224;SDS011;6175;50.956;11.064;2024-03-02T10:40:26;7.95;;;6.55;;
12224;SDS011;6175;50.956;11.064;2024-03-02T10:42:53;7.15;;;6.32;;
12224;SDS011;6175;50.956;11.064;2024-03-02T10:45:21;9.05;;;6.97;;
12224;SDS011;6175;50.956;11.064;2024-03-02T10:47:48;8.95;;;7.20;;
12224;SDS011;6175;50.956;11.064;2024-03-02T10:50:16;7.97;;;6.93;;
12224;SDS011;6175;50.956;11.064;2024-03-02T10:52:43;7.65;;;6.57;;
12224;SDS011;6175;50.956;11.064;2024-03-02T10:55:10;7.65;;;6.22;;
12224;SDS011;6175;50.956;11.064;2024-03-02T10:57:44;7.30;;;6.50;;
12224;SDS011;6175;50.956;11.064;2024-03-02T11:00:17;7.32;;;6.50;;
12224;SDS011;6175;50.956;11.064;2024-03-02T11:02:50;7.60;;;6.35;;
12224;SDS011;6175;50.956;11.064;2024-03-02T11:05:19;7.70;;;6.15;;
12224;SDS011;6175;50.956;11.064;2024-03-02T11:07:51;5.97;;;5.38;;
12224;SDS011;6175;50.956;11.064;2024-03-02T11:10:22;6.82;;;4.90;;
12224;SDS011;6175;50.956;11.064;2024-03-02T11:12:52;5.55;;;4.80;;
12224;SDS011;6175;50.956;11.064;2024-03-02T11:15:20;5.97;;;5.05;;
12224;SDS011;6175;50.956;11.064;2024-03-02T11:17:51;5.35;;;4.40;;
12224;SDS011;6175;50.956;11.064;2024-03-02T11:20:18;5.10;;;4.43;;
12224;SDS011;6175;50.956;11.064;2024-03-02T11:22:46;6.03;;;4.55;;
12224;SDS011;6175;50.956;11.064;2024-03-02T11:25:22;6.53;;;4.18;;
12224;SDS011;6175;50.956;11.064;2024-03-02T11:28:01;5.15;;;4.40;;
12224;SDS011;6175;50.956;11.064;2024-03-02T11:33:22;5.45;;;4.32;;
12224;SDS011;6175;50.956;11.064;2024-03-02T11:35:50;4.10;;;3.60;;
12224;SDS011;6175;50.956;11.064;2024-03-02T11:38:17;5.22;;;4.55;;
12224;SDS011;6175;50.956;11.064;2024-03-02T11:40:45;4.57;;;4.18;;
12224;SDS011;6175;50.956;11.064;2024-03-02T11:43:13;4.78;;;4.22;;
12224;SDS011;6175;50.956;11.064;2024-03-02T11:45:41;5.43;;;4.38;;
12224;SDS011;6175;50.956;11.064;2024-03-02T11:48:11;5.15;;;4.50;;
12224;SDS011;6175;50.956;11.064;2024-03-02T11:50:40;4.80;;;4.28;;
12224;SDS011;6175;50.956;11.064;2024-03-02T11:53:08;5.95;;;4.60;;
12224;SDS011;6175;50.956;11.064;2024-03-02T11:55:37;5.13;;;4.00;;
12224;SDS011;6175;50.956;11.064;2024-03-02T11:58:05;3.72;;;3.22;;
12224;SDS011;6175;50.956;11.064;2024-03-02T12:00:34;3.53;;;2.90;;
12224;SDS011;6175;50.956;11.064;2024-03-02T12:03:02;3.40;;;2.50;;
12224;SDS011;6175;50.956;11.064;2024-03-02T12:05:32;2.78;;;2.58;;
12224;SDS011;6175;50.956;11.064;2024-03-02T12:08:00;2.65;;;2.45;;
12224;SDS011;6175;50.956;11.064;2024-03-02T12:10:28;3.25;;;2.67;;
12224;SDS011;6175;50.956;11.064;2024-03-02T12:12:56;3.35;;;2.22;;
12224;SDS011;6175;50.956;11.064;2024-03-02T12:15:24;3.53;;;2.90;;
12224;SDS011;6175;50.956;11.064;2024-03-02T12:17:56;3.42;;;2.88;;
12224;SDS011;6175;50.956;11.064;2024-03-02T12:20:23;4.03;;;3.50;;
12224;SDS011;6175;50.956;11.064;2024-03-02T12:22:51;3.70;;;3.17;;
12224;SDS011;6175;50.956;11.064;2024-03-02T12:25:18;4.30;;;3.05;;
12224;SDS011;6175;50.956;11.064;2024-03-02T12:27:45;4.20;;;3.35;;
12224;SDS011;6175;50.956;11.064;2024-03-02T12:30:13;4.05;;;3.10;;
12224;SDS011;6175;50.956;11.064;2024-03-02T12:32:40;4.35;;;3.20;;
12224;SDS011;6175;50.956;11.064;2024-03-02T12:35:09;3.13;;;2.83;;
12224;SDS011;6175;50.956;11.064;2024-03-02T12:37:42;3.50;;;3.20;;
12224;SDS011;6175;50.956;11.064;2024-03-02T12:40:10;3.13;;;2.83;;
12224;SDS011;6175;50.956;11.064;2024-03-02T12:42:37;3.63;;;3.03;;
12224;SDS011;6175;50.956;11.064;2024-03-02T12:45:04;3.35;;;2.97;;
12224;SDS011;6175;50.956;11.064;2024-03-02T12:47:32;4.63;;;3.63;;
12224;SDS011;6175;50.956;11.064;2024-03-02T12:49:59;3.78;;;3.15;;
12224;SDS011;6175;50.956;11.064;2024-03-02T12:52:27;3.47;;;3.17;;
12224;SDS011;6175;50.956;11.064;2024-03-02T12:54:55;3.50;;;3.20;;
12224;SDS011;6175;50.956;11.064;2024-03-02T12:57:25;4.50;;;3.30;;
12224;SDS011;6175;50.956;11.064;2024-03-02T12:59:56;3.88;;;3.45;;
12224;SDS011;6175;50.956;11.064;2024-03-02T13:02:23;4.10;;;3.53;;
12224;SDS011;6175;50.956;11.064;2024-03-02T13:04:54;3.55;;;3.10;;
12224;SDS011;6175;50.956;11.064;2024-03-02T13:07:21;3.10;;;2.60;;
12224;SDS011;6175;50.956;11.064;2024-03-02T13:09:50;3.40;;;3.10;;
12224;SDS011;6175;50.956;11.064;2024-03-02T13:12:17;5.13;;;3.72;;
12224;SDS011;6175;50.956;11.064;2024-03-02T13:14:47;3.85;;;3.08;;
12224;SDS011;6175;50.956;11.064;2024-03-02T13:17:14;4.03;;;3.45;;
12224;SDS011;6175;50.956;11.064;2024-03-02T13:19:43;5.22;;;3.53;;
12224;SDS011;6175;50.956;11.064;2024-03-02T13:22:10;6.95;;;4.20;;
12224;SDS011;6175;50.956;11.064;2024-03-02T13:24:37;4.38;;;3.60;;
12224;SDS011;6175;50.956;11.064;2024-03-02T13:27:08;4.82;;;4.22;;
12224;SDS011;6175;50.956;11.064;2024-03-02T13:29:35;4.80;;;4.10;;
12224;SDS011;6175;50.956;11.064;2024-03-02T13:32:03;3.58;;;3.28;;
12224;SDS011;6175;50.956;11.064;2024-03-02T13:34:30;3.50;;;3.20;;
12224;SDS011;6175;50.956;11.064;2024-03-02T13:36:57;5.28;;;4.25;;
12224;SDS011;6175;50.956;11.064;2024-03-02T13:39:26;4.72;;;4.28;;
12224;SDS011;6175;50.956;11.064;2024-03-02T13:41:55;4.72;;;4.28;;
12224;SDS011;6175;50.956;11.064;2024-03-02T13:44:30;4.80;;;4.30;;
12224;SDS011;6175;50.956;11.064;2024-03-02T13:46:57;5.18;;;4.45;;
12224;SDS011;6175;50.956;11.064;2024-03-02T13:49:25;4.57;;;4.05;;
12224;SDS011;6175;50.956;11.064;2024-03-02T13:51:58;4.22;;;3.50;;
12224;SDS011;6175;50.956;11.064;2024-03-02T13:54:25;4.30;;;3.42;;
12224;SDS011;6175;50.956;11.064;2024-03-02T13:56:52;3.28;;;2.85;;
12224;SDS011;6175;50.956;11.064;2024-03-02T13:59:20;3.03;;;2.72;;
12224;SDS011;6175;50.956;11.064;2024-03-02T14:01:48;3.33;;;3.00;;
12224;SDS011;6175;50.956;11.064;2024-03-02T14:04:16;3.78;;;3.00;;
12224;SDS011;6175;50.956;11.064;2024-03-02T14:06:43;3.65;;;3.25;;
12224;SDS011;6175;50.956;11.064;2024-03-02T14:09:11;4.82;;;3.10;;
12224;SDS011;6175;50.956;11.064;2024-03-02T14:11:38;4.03;;;2.60;;
12224;SDS011;6175;50.956;11.064;2024-03-02T14:14:05;3.50;;;3.20;;
12224;SDS011;6175;50.956;11.064;2024-03-02T14:16:32;4.68;;;3.70;;
12224;SDS011;6175;50.956;11.064;2024-03-02T14:19:00;4.47;;;3.33;;
12224;SDS011;6175;50.956;11.064;2024-03-02T14:21:29;4.07;;;3.33;;
12224;SDS011;6175;50.956;11.064;2024-03-02T14:23:56;4.20;;;3.10;;
12224;SDS011;6175;50.956;11.064;2024-03-02T14:26:23;3.92;;;3.00;;
12224;SDS011;6175;50.956;11.064;2024-03-02T14:28:50;4.68;;;2.90;;
12224;SDS011;6175;50.956;11.064;2024-03-02T14:31:17;4.13;;;3.10;;
12224;SDS011;6175;50.956;11.064;2024-03-02T14:33:45;3.53;;;2.97;;
12224;SDS011;6175;50.956;11.064;2024-03-02T14:36:13;2.83;;;2.50;;
12224;SDS011;6175;50.956;11.064;2024-03-02T14:38:40;2.90;;;2.50;;